Time;durP1;ratioP1;P1;durP2;ratioP2;P2;SDS_P1;SDS_P2;PMS_P1;PMS_P2;Temp;Humidity;BMP_temperature;BMP_pressure;BME280_temperature;BME280_humidity;BME280_pressure;Samples;Min_cycle;Max_cycle;Signal;HPM_P1;HPM_P2
2022/08/21 00:00:09;;;;;;;1.88;1.73;;;17.60;99.90;;;;;;5196463;28;20304;-60
2022/08/21 00:02:51;;;;;;;2.00;1.70;;;17.60;99.90;;;;;;5219775;28;20291;-60
2022/08/21 00:05:27;;;;;;;6.30;1.88;;;17.60;99.90;;;;;;5208871;28;20423;-59
2022/08/21 00:07:58;;;;;;;2.28;1.67;;;17.60;99.90;;;;;;5225976;28;20470;-60
2022/08/21 00:10:32;;;;;;;1.50;1.40;;;17.60;99.90;;;;;;5230656;28;20020;-60
2022/08/21 00:13:06;;;;;;;2.13;1.92;;;17.60;99.90;;;;;;5194711;28;20037;-60
2022/08/21 00:15:39;;;;;;;1.60;1.42;;;17.70;99.90;;;;;;5198087;28;20025;-60
2022/08/21 00:18:13;;;;;;;2.10;1.65;;;17.70;99.90;;;;;;5221556;28;20194;-60
2022/08/21 00:20:47;;;;;;;1.95;1.70;;;17.70;99.90;;;;;;5220047;28;20028;-59
2022/08/21 00:23:21;;;;;;;1.30;1.20;;;17.70;99.90;;;;;;5237728;28;20028;-61
2022/08/21 00:25:57;;;;;;;2.15;1.60;;;17.70;99.90;;;;;;5237726;28;20024;-62
2022/08/21 00:28:33;;;;;;;1.77;1.67;;;17.80;99.90;;;;;;5205009;28;20028;-61
2022/08/21 00:31:05;;;;;;;2.65;2.33;;;17.80;99.90;;;;;;5200955;28;20047;-60
2022/08/21 00:33:38;;;;;;;1.42;1.33;;;17.80;99.90;;;;;;5212333;28;20226;-61
2022/08/21 00:36:11;;;;;;;1.63;1.50;;;17.80;99.90;;;;;;5218635;28;20021;-59
2022/08/21 00:38:45;;;;;;;2.03;1.60;;;17.80;99.90;;;;;;5227652;28;20028;-60
2022/08/21 00:41:16;;;;;;;1.65;1.55;;;17.90;99.90;;;;;;5218052;28;20310;-60
2022/08/21 00:43:53;;;;;;;3.30;1.75;;;17.90;99.90;;;;;;5222013;28;20033;-59
2022/08/21 00:46:24;;;;;;;2.22;1.73;;;17.90;99.90;;;;;;5197483;28;20214;-61
2022/08/21 00:49:01;;;;;;;2.30;2.10;;;17.90;99.90;;;;;;5215499;28;20025;-60
2022/08/21 00:51:59;;;;;;;2.75;2.15;;;17.90;99.90;;;;;;5186501;28;20045;-62
2022/08/21 00:54:31;;;;;;;1.90;1.70;;;17.90;99.90;;;;;;5197586;28;20047;-60
2022/08/21 00:57:10;;;;;;;2.10;1.90;;;17.90;99.90;;;;;;5215587;28;20029;-59
2022/08/21 00:59:45;;;;;;;5.80;2.08;;;17.90;99.90;;;;;;5222692;28;20025;-59
2022/08/21 01:02:26;;;;;;;1.75;1.65;;;17.90;99.90;;;;;;5222534;28;20185;-60
2022/08/21 01:04:58;;;;;;;1.75;1.65;;;17.90;99.90;;;;;;5199438;28;20342;-60
2022/08/21 01:07:35;;;;;;;1.85;1.75;;;17.90;99.90;;;;;;5196809;28;20043;-60
2022/08/21 01:10:10;;;;;;;2.25;1.80;;;17.90;99.90;;;;;;5218239;28;20033;-60
2022/08/21 01:12:44;;;;;;;;;;;18.00;99.90;;;;;;5192717;28;20033;-59
2022/08/21 01:15:22;;;;;;;2.28;1.90;;;18.00;99.90;;;;;;5161774;28;20135;-60
2022/08/21 01:17:55;;;;;;;4.80;2.10;;;18.00;99.90;;;;;;5200330;28;20025;-61
2022/08/21 01:20:31;;;;;;;2.00;1.80;;;18.10;99.90;;;;;;5216321;28;20039;-59
2022/08/21 01:23:07;;;;;;;2.20;1.88;;;18.10;99.90;;;;;;5230588;28;20054;-60
2022/08/21 01:25:41;;;;;;;2.50;1.95;;;18.10;99.90;;;;;;5221228;28;20029;-59
2022/08/21 01:28:20;;;;;;;1.92;1.80;;;18.10;99.90;;;;;;5239406;28;20478;-59
2022/08/21 01:30:52;;;;;;;2.38;1.77;;;18.20;99.90;;;;;;5230779;28;20024;-59
2022/08/21 01:33:25;;;;;;;2.67;2.47;;;18.10;99.90;;;;;;5204817;28;20452;-60
2022/08/21 01:35:58;;;;;;;2.22;1.70;;;18.10;99.90;;;;;;5233223;28;20032;-60
2022/08/21 01:38:33;;;;;;;2.33;2.13;;;18.10;99.90;;;;;;5237791;28;20066;-60
2022/08/21 01:41:07;;;;;;;2.53;2.15;;;18.10;99.90;;;;;;5222921;28;20025;-60
2022/08/21 01:43:38;;;;;;;2.78;2.08;;;18.10;99.90;;;;;;5230001;28;20234;-60
2022/08/21 01:46:11;;;;;;;3.42;2.00;;;18.20;99.90;;;;;;5219538;28;20025;-59
2022/08/21 01:48:47;;;;;;;2.58;2.00;;;18.20;99.90;;;;;;5220487;28;20032;-61
2022/08/21 01:51:21;;;;;;;1.90;1.63;;;18.20;99.90;;;;;;5218291;28;20024;-61
2022/08/21 01:53:58;;;;;;;2.05;1.90;;;18.10;99.90;;;;;;5199367;28;20023;-60
2022/08/21 01:56:37;;;;;;;2.40;2.20;;;18.20;99.90;;;;;;5196952;28;20122;-60
2022/08/21 01:59:12;;;;;;;2.03;1.83;;;18.20;99.90;;;;;;5216262;28;20035;-59
2022/08/21 02:01:43;;;;;;;;;;;18.20;99.90;;;;;;5208730;28;20025;-60
2022/08/21 02:04:20;;;;;;;3.20;2.28;;;18.10;99.90;;;;;;5204167;28;19923;-59
2022/08/21 02:06:51;;;;;;;2.67;1.95;;;18.10;99.90;;;;;;5201099;28;20031;-60
2022/08/21 02:09:28;;;;;;;3.35;2.13;;;18.10;99.90;;;;;;5229240;28;20039;-61
2022/08/21 02:12:03;;;;;;;3.80;1.92;;;18.10;99.90;;;;;;5239947;28;20027;-60
2022/08/21 02:14:34;;;;;;;2.30;2.10;;;18.10;99.90;;;;;;5187518;28;20041;-61
2022/08/21 02:17:09;;;;;;;2.20;2.00;;;18.10;99.90;;;;;;5200888;28;20038;-60
2022/08/21 02:19:41;;;;;;;2.42;2.13;;;18.10;99.90;;;;;;5231864;28;20031;-60
2022/08/21 02:22:14;;;;;;;4.35;1.70;;;18.00;99.90;;;;;;5235353;28;20430;-60
2022/08/21 02:24:46;;;;;;;3.23;2.27;;;17.90;99.90;;;;;;5238009;28;20021;-60
2022/08/21 02:27:17;;;;;;;2.47;1.60;;;17.80;99.90;;;;;;5227665;28;20258;-59
2022/08/21 02:29:51;;;;;;;2.20;2.00;;;17.70;99.90;;;;;;5222133;28;20214;-60
2022/08/21 02:32:22;;;;;;;2.53;2.33;;;17.60;99.90;;;;;;5196503;28;20037;-59
2022/08/21 02:35:01;;;;;;;3.90;2.80;;;17.50;99.90;;;;;;5200264;28;20029;-61
2022/08/21 02:37:32;;;;;;;4.78;2.45;;;17.40;99.90;;;;;;5218711;28;20029;-61
2022/08/21 02:40:11;;;;;;;2.97;2.47;;;17.40;99.90;;;;;;5233830;28;20032;-60
2022/08/21 02:42:47;;;;;;;2.22;1.92;;;17.40;99.90;;;;;;5236393;28;20221;-59
2022/08/21 02:45:23;;;;;;;2.38;2.17;;;17.40;99.90;;;;;;5219472;28;20248;-59
2022/08/21 02:48:04;;;;;;;2.88;2.30;;;17.40;99.90;;;;;;5200721;28;20285;-60
2022/08/21 02:50:44;;;;;;;3.75;2.45;;;17.50;99.90;;;;;;5216295;28;20033;-61
2022/08/21 02:53:22;;;;;;;4.35;2.42;;;17.50;99.90;;;;;;5212298;28;20083;-59
2022/08/21 02:56:00;;;;;;;2.83;2.22;;;17.50;99.90;;;;;;5211189;28;20017;-60
2022/08/21 02:58:39;;;;;;;2.42;2.22;;;17.40;99.90;;;;;;5223512;28;20320;-60
2022/08/21 03:01:11;;;;;;;5.47;2.53;;;17.40;99.90;;;;;;5218565;28;20028;-59
2022/08/21 03:03:44;;;;;;;2.72;2.40;;;17.30;99.90;;;;;;5199290;28;20310;-60
2022/08/21 03:06:17;;;;;;;3.00;2.63;;;17.20;99.90;;;;;;5189066;28;20052;-61
2022/08/21 03:08:51;;;;;;;3.10;2.60;;;17.10;99.90;;;;;;5217256;28;20041;-61
2022/08/21 03:11:26;;;;;;;3.57;2.60;;;17.00;99.90;;;;;;5211264;28;20029;-61
2022/08/21 03:13:57;;;;;;;2.55;2.35;;;17.00;99.90;;;;;;5199722;28;20257;-60
2022/08/21 03:16:33;;;;;;;3.72;2.53;;;17.00;99.90;;;;;;5199705;28;20298;-60
2022/08/21 03:19:07;;;;;;;2.63;2.40;;;17.10;99.90;;;;;;5217152;28;20234;-60
2022/08/21 03:21:43;;;;;;;4.32;2.70;;;17.00;99.90;;;;;;5217055;28;20043;-62
2022/08/21 03:24:16;;;;;;;3.85;2.75;;;17.00;99.90;;;;;;5196989;28;20440;-60
2022/08/21 03:26:52;;;;;;;3.88;2.90;;;16.90;99.90;;;;;;5211230;28;20020;-60
2022/08/21 03:29:23;;;;;;;2.30;2.10;;;16.90;99.90;;;;;;5203867;28;20023;-61
2022/08/21 03:31:55;;;;;;;2.90;2.40;;;16.80;99.90;;;;;;5219443;28;20145;-59
2022/08/21 03:34:34;;;;;;;2.85;2.20;;;16.80;99.90;;;;;;5233675;28;20114;-62
2022/08/21 03:37:09;;;;;;;6.40;2.53;;;16.80;99.90;;;;;;5182993;28;20255;-60
2022/08/21 03:39:44;;;;;;;2.13;1.95;;;16.90;99.90;;;;;;5186151;28;20238;-60
2022/08/21 03:42:21;;;;;;;1.88;1.75;;;16.90;99.90;;;;;;5221666;28;20029;-60
2022/08/21 03:44:55;;;;;;;2.03;1.58;;;16.90;99.90;;;;;;5216376;28;20055;-59
2022/08/21 03:47:27;;;;;;;1.67;1.58;;;16.90;99.90;;;;;;5199307;28;20274;-60
2022/08/21 03:49:59;;;;;;;1.75;1.60;;;16.90;99.90;;;;;;5193786;28;20033;-60
2022/08/21 03:52:33;;;;;;;1.35;1.25;;;16.90;99.90;;;;;;5193260;28;20420;-60
2022/08/21 03:55:06;;;;;;;2.03;1.85;;;16.90;99.90;;;;;;5189687;28;20246;-61
2022/08/21 03:57:38;;;;;;;1.83;1.70;;;16.90;99.90;;;;;;5216262;28;20028;-60
2022/08/21 04:00:11;;;;;;;1.60;1.50;;;16.90;99.90;;;;;;5217553;28;20043;-60
2022/08/21 04:02:43;;;;;;;1.60;1.50;;;16.90;99.90;;;;;;5204907;28;20333;-60
2022/08/21 04:05:26;;;;;;;2.17;1.90;;;16.90;99.90;;;;;;5188850;28;20044;-61
2022/08/21 04:08:03;;;;;;;1.85;1.45;;;16.80;99.90;;;;;;5198532;28;20021;-61
2022/08/21 04:10:42;;;;;;;1.88;1.65;;;16.80;99.90;;;;;;5207262;28;20430;-61
2022/08/21 04:13:14;;;;;;;1.70;1.60;;;16.70;99.90;;;;;;5217004;28;20028;-61
2022/08/21 04:15:51;;;;;;;1.92;1.70;;;16.70;99.90;;;;;;5217524;28;20037;-61
2022/08/21 04:18:24;;;;;;;1.80;1.70;;;16.70;99.90;;;;;;5216563;28;20077;-61
2022/08/21 04:21:01;;;;;;;1.50;1.23;;;16.80;99.90;;;;;;5219027;28;20025;-61
2022/08/21 04:23:36;;;;;;;2.17;1.70;;;16.70;99.90;;;;;;5221122;28;20024;-61
2022/08/21 04:26:09;;;;;;;1.80;1.70;;;16.70;99.90;;;;;;5214588;28;20033;-61
2022/08/21 04:28:46;;;;;;;2.28;1.80;;;16.70;99.90;;;;;;5220990;28;20017;-62
2022/08/21 04:31:17;;;;;;;1.83;1.42;;;16.70;99.90;;;;;;5220649;28;20333;-62
2022/08/21 04:33:49;;;;;;;1.67;1.58;;;16.70;99.90;;;;;;5216410;28;20031;-62
2022/08/21 04:36:29;;;;;;;1.30;1.20;;;16.70;99.90;;;;;;5216490;28;20047;-61
2022/08/21 04:39:00;;;;;;;2.00;1.80;;;16.70;99.90;;;;;;5196319;28;20021;-62
2022/08/21 04:41:31;;;;;;;1.35;1.23;;;16.80;99.90;;;;;;5195976;28;20034;-62
2022/08/21 04:44:06;;;;;;;1.10;1.10;;;16.80;99.90;;;;;;5213268;28;20433;-61
2022/08/21 04:46:42;;;;;;;1.65;1.55;;;16.80;99.90;;;;;;5232558;28;20022;-62
2022/08/21 04:49:18;;;;;;;1.45;1.35;;;16.90;99.90;;;;;;5217053;28;20217;-61
2022/08/21 04:51:53;;;;;;;1.38;1.27;;;16.90;99.90;;;;;;5222456;28;20029;-61
2022/08/21 04:54:27;;;;;;;2.33;1.85;;;17.00;99.90;;;;;;5225502;28;20210;-61
2022/08/21 04:57:07;;;;;;;1.33;1.23;;;17.00;99.90;;;;;;5201407;28;20191;-61
2022/08/21 04:59:45;;;;;;;1.40;1.30;;;17.00;99.90;;;;;;5236860;28;20466;-62
2022/08/21 05:02:20;;;;;;;1.63;1.52;;;17.00;99.90;;;;;;5230542;28;20027;-62
2022/08/21 05:04:57;;;;;;;1.73;1.63;;;17.10;99.90;;;;;;5193881;28;20071;-62
2022/08/21 05:07:31;;;;;;;1.30;1.20;;;17.10;99.90;;;;;;5189219;28;20031;-60
2022/08/21 05:10:08;;;;;;;1.80;1.70;;;17.10;99.90;;;;;;5241881;28;20025;-60
2022/08/21 05:12:42;;;;;;;1.90;1.48;;;17.20;99.90;;;;;;5236842;28;20028;-60
2022/08/21 05:15:16;;;;;;;1.80;1.55;;;17.20;99.90;;;;;;5222881;28;20016;-61
2022/08/21 05:17:50;;;;;;;2.30;2.10;;;17.30;99.90;;;;;;5220316;28;20096;-60
2022/08/21 05:20:24;;;;;;;2.13;1.92;;;17.30;99.90;;;;;;5224829;28;20021;-61
2022/08/21 05:22:56;;;;;;;1.80;1.50;;;17.30;99.90;;;;;;5229963;28;20025;-59
2022/08/21 05:25:27;;;;;;;1.63;1.45;;;17.40;99.90;;;;;;5201515;28;20051;-62
2022/08/21 05:28:00;;;;;;;2.10;2.00;;;17.50;99.90;;;;;;5207500;28;20028;-59
2022/08/21 05:30:32;;;;;;;1.70;1.60;;;17.60;99.90;;;;;;5217041;28;20033;-62
2022/08/21 05:33:06;;;;;;;1.58;1.48;;;17.60;99.90;;;;;;5222690;28;20032;-61
2022/08/21 05:35:38;;;;;;;1.70;1.60;;;17.70;99.90;;;;;;5193185;28;20104;-60
2022/08/21 05:38:15;;;;;;;1.55;1.42;;;17.70;99.90;;;;;;5209873;28;20215;-60
2022/08/21 05:40:51;;;;;;;1.70;1.58;;;17.80;99.90;;;;;;5204015;28;20320;-60
2022/08/21 05:43:22;;;;;;;2.00;1.52;;;17.90;99.90;;;;;;5201867;28;20231;-60
2022/08/21 05:45:56;;;;;;;1.52;1.20;;;17.90;99.90;;;;;;5206500;28;20024;-61
2022/08/21 05:48:30;;;;;;;1.38;1.27;;;17.90;99.90;;;;;;5210398;28;20347;-60
2022/08/21 05:51:11;;;;;;;1.90;1.50;;;18.00;99.90;;;;;;5221914;28;20039;-60
2022/08/21 05:53:45;;;;;;;1.15;1.05;;;18.10;99.90;;;;;;5201696;28;20250;-60
2022/08/21 05:56:16;;;;;;;1.77;1.67;;;18.10;99.90;;;;;;5217752;28;20059;-60
2022/08/21 05:58:49;;;;;;;2.22;1.90;;;18.10;99.90;;;;;;5216622;28;20029;-60
2022/08/21 06:01:22;;;;;;;1.42;1.33;;;18.10;99.90;;;;;;5218880;28;20027;-60
2022/08/21 06:03:58;;;;;;;1.52;1.42;;;18.20;99.90;;;;;;5201422;28;20031;-60
2022/08/21 06:06:29;;;;;;;1.90;1.58;;;18.30;99.90;;;;;;5206646;28;20048;-61
2022/08/21 06:09:01;;;;;;;1.63;1.52;;;18.40;99.90;;;;;;5217638;28;20024;-60
2022/08/21 06:11:36;;;;;;;1.30;1.20;;;18.40;99.90;;;;;;5219634;28;20029;-61
2022/08/21 06:14:18;;;;;;;1.95;1.85;;;18.50;99.90;;;;;;5200803;28;20079;-60
2022/08/21 06:16:50;;;;;;;1.77;1.48;;;18.50;99.90;;;;;;5209009;28;20332;-61
2022/08/21 06:19:26;;;;;;;2.42;1.70;;;18.70;99.90;;;;;;5206385;28;20033;-60
2022/08/21 06:21:58;;;;;;;1.63;1.52;;;18.70;99.90;;;;;;5201392;28;20033;-61
2022/08/21 06:24:33;;;;;;;1.48;1.38;;;18.90;99.90;;;;;;5219263;28;20476;-60
2022/08/21 06:27:08;;;;;;;1.55;1.42;;;18.80;99.90;;;;;;5216666;28;20029;-62
2022/08/21 06:29:41;;;;;;;1.65;1.52;;;18.80;99.90;;;;;;5216890;28;20031;-60
2022/08/21 06:32:15;;;;;;;1.48;1.38;;;18.80;99.90;;;;;;5217519;28;20025;-61
2022/08/21 06:34:49;;;;;;;1.65;1.48;;;18.80;99.90;;;;;;5218674;28;20021;-60
2022/08/21 06:37:25;;;;;;;1.30;1.20;;;18.80;99.90;;;;;;5216919;28;20025;-61
2022/08/21 06:39:59;;;;;;;1.58;1.48;;;18.90;99.90;;;;;;5237084;28;20033;-61
2022/08/21 06:42:32;;;;;;;1.50;1.40;;;18.70;99.90;;;;;;5217220;28;20192;-60
2022/08/21 06:45:04;;;;;;;1.95;1.83;;;18.70;99.90;;;;;;5203320;28;20029;-61
2022/08/21 06:47:36;;;;;;;1.70;1.60;;;18.70;99.90;;;;;;5204253;28;20306;-61
2022/08/21 06:50:10;;;;;;;1.63;1.40;;;18.70;99.90;;;;;;5215529;28;20327;-61
2022/08/21 06:52:41;;;;;;;;;;;18.80;99.90;;;;;;5221217;28;20207;-63
2022/08/21 06:55:13;;;;;;;1.55;1.45;;;18.80;99.90;;;;;;5238702;28;19901;-61
2022/08/21 06:57:46;;;;;;;1.60;1.50;;;18.90;99.90;;;;;;5239020;28;20039;-60
2022/08/21 07:00:25;;;;;;;1.42;1.33;;;18.90;99.90;;;;;;5225428;28;20051;-61
2022/08/21 07:02:56;;;;;;;2.58;1.50;;;18.80;99.90;;;;;;5217979;28;20035;-61
2022/08/21 07:05:33;;;;;;;2.15;1.80;;;18.80;99.90;;;;;;5207494;28;20052;-60
2022/08/21 07:08:12;;;;;;;1.60;1.50;;;18.80;99.90;;;;;;5200336;28;20017;-60
2022/08/21 07:10:48;;;;;;;1.88;1.67;;;18.70;99.90;;;;;;5218745;28;20024;-60
2022/08/21 07:13:24;;;;;;;1.65;1.40;;;18.70;99.90;;;;;;5215249;28;20051;-60
2022/08/21 07:15:57;;;;;;;1.50;1.40;;;18.70;99.90;;;;;;5183105;28;20036;-60
2022/08/21 07:18:31;;;;;;;2.05;1.85;;;18.80;99.90;;;;;;5199533;28;20283;-60
2022/08/21 07:21:07;;;;;;;2.00;1.67;;;18.70;99.90;;;;;;5198210;28;20344;-61
2022/08/21 07:23:41;;;;;;;3.95;1.50;;;18.70;99.90;;;;;;5218022;28;20516;-60
2022/08/21 07:26:14;;;;;;;;;;;18.60;99.90;;;;;;5200458;28;20036;-61
2022/08/21 07:28:48;;;;;;;2.63;2.08;;;18.60;99.90;;;;;;5200578;28;19900;-60
2022/08/21 07:31:24;;;;;;;1.98;1.60;;;18.50;99.90;;;;;;5217033;28;20037;-61
2022/08/21 07:33:57;;;;;;;1.90;1.55;;;18.50;99.90;;;;;;5219424;28;20028;-61
2022/08/21 07:36:30;;;;;;;1.60;1.50;;;18.50;99.90;;;;;;5171126;28;20025;-60
2022/08/21 07:39:07;;;;;;;1.63;1.42;;;18.40;99.90;;;;;;5200169;28;20029;-61
2022/08/21 07:41:39;;;;;;;1.65;1.55;;;18.40;99.90;;;;;;5234558;28;20017;-61
2022/08/21 07:44:10;;;;;;;1.50;1.40;;;18.30;99.90;;;;;;5201465;28;20055;-61
2022/08/21 07:46:44;;;;;;;1.67;1.58;;;18.20;99.90;;;;;;5226390;28;20031;-60
2022/08/21 07:49:18;;;;;;;3.80;2.20;;;18.20;99.90;;;;;;5198797;28;20029;-61
2022/08/21 07:51:52;;;;;;;1.95;1.52;;;18.20;99.90;;;;;;5200961;28;20295;-61
2022/08/21 07:54:28;;;;;;;1.52;1.42;;;18.30;99.90;;;;;;5219664;28;20260;-60
2022/08/21 07:57:01;;;;;;;1.77;1.33;;;18.40;99.90;;;;;;5198748;28;20332;-60
2022/08/21 07:59:35;;;;;;;1.77;1.48;;;18.60;99.90;;;;;;5236381;28;20475;-61
2022/08/21 08:02:11;;;;;;;1.70;1.60;;;18.70;99.90;;;;;;5226690;28;20033;-61
2022/08/21 08:04:44;;;;;;;1.58;1.40;;;18.80;99.90;;;;;;5187867;28;20049;-62
2022/08/21 08:07:16;;;;;;;1.60;1.50;;;18.90;99.90;;;;;;5182178;28;20222;-63
2022/08/21 08:09:47;;;;;;;1.50;1.40;;;19.00;99.90;;;;;;5198365;28;20029;-61
2022/08/21 08:12:22;;;;;;;1.58;1.30;;;19.10;99.90;;;;;;5216980;28;20300;-60
2022/08/21 08:14:53;;;;;;;1.52;1.42;;;19.00;99.90;;;;;;5226980;28;20036;-61
2022/08/21 08:17:27;;;;;;;1.52;1.25;;;19.10;99.90;;;;;;5199960;28;20061;-61
2022/08/21 08:20:00;;;;;;;1.33;1.15;;;19.50;99.90;;;;;;5219315;28;20028;-61
2022/08/21 08:22:33;;;;;;;1.60;1.45;;;19.80;99.90;;;;;;5216854;28;20214;-61
2022/08/21 08:25:09;;;;;;;1.38;1.27;;;19.80;99.90;;;;;;5151974;28;20567;-61
2022/08/21 08:27:42;;;;;;;1.67;1.50;;;19.70;99.90;;;;;;5132731;28;20038;-62
2022/08/21 08:30:19;;;;;;;1.35;1.25;;;20.00;99.90;;;;;;5136112;28;20227;-61
2022/08/21 08:32:54;;;;;;;1.20;1.10;;;20.20;99.90;;;;;;5156301;28;20030;-61
2022/08/21 08:35:26;;;;;;;1.40;1.30;;;20.20;99.90;;;;;;5164392;28;20363;-61
2022/08/21 08:38:03;;;;;;;1.40;1.30;;;20.40;99.90;;;;;;5156967;28;20026;-61
2022/08/21 08:40:52;;;;;;;1.70;1.52;;;20.30;99.90;;;;;;5126545;28;20068;-61
2022/08/21 08:43:23;;;;;;;1.80;1.50;;;20.40;99.90;;;;;;5163611;28;20018;-61
2022/08/21 08:45:57;;;;;;;1.40;1.30;;;20.10;99.90;;;;;;5157178;28;20311;-61
2022/08/21 08:49:02;;;;;;;1.50;1.40;;;20.10;99.90;;;;;;5156433;28;20032;-61
2022/08/21 08:51:53;;;;;;;1.60;1.33;;;20.00;99.90;;;;;;5140635;28;20026;-60
2022/08/21 08:55:02;;;;;;;1.80;1.50;;;19.70;99.90;;;;;;5155453;28;20034;-59
2022/08/21 08:57:36;;;;;;;1.52;1.42;;;19.70;99.90;;;;;;5202688;28;20043;-60
2022/08/21 09:00:10;;;;;;;2.28;1.65;;;19.50;99.90;;;;;;5202485;28;20029;-60
2022/08/21 09:02:49;;;;;;;1.98;1.77;;;19.10;99.90;;;;;;5220822;28;20017;-64
2022/08/21 09:05:26;;;;;;;1.85;1.58;;;18.80;99.90;;;;;;5209505;28;20182;-60
2022/08/21 09:08:25;;;;;;;2.35;2.05;;;18.80;99.90;;;;;;5201274;28;20060;-60
2022/08/21 09:11:02;;;;;;;1.75;1.65;;;18.90;99.90;;;;;;5223203;28;20017;-60
2022/08/21 09:13:51;;;;;;;2.15;1.95;;;19.10;99.90;;;;;;5208671;28;20055;-60
2022/08/21 09:17:03;;;;;;;1.48;1.38;;;19.30;99.90;;;;;;5202409;28;20351;-60
2022/08/21 09:20:08;;;;;;;1.73;1.63;;;19.70;99.90;;;;;;5202513;28;20025;-61
2022/08/21 09:23:17;;;;;;;2.00;1.73;;;19.90;99.90;;;;;;5202124;28;20029;-60
2022/08/21 09:26:15;;;;;;;1.20;1.10;;;20.20;99.90;;;;;;5199711;28;20036;-61
2022/08/21 09:28:55;;;;;;;1.55;1.40;;;20.30;99.90;;;;;;5199286;28;20035;-61
2022/08/21 09:31:34;;;;;;;1.55;1.25;;;20.30;99.90;;;;;;5197403;28;20302;-61
2022/08/21 09:34:14;;;;;;;1.65;1.30;;;20.40;99.90;;;;;;5219796;28;20059;-61
2022/08/21 09:36:50;;;;;;;1.27;1.17;;;20.30;99.90;;;;;;5203601;28;20035;-60
2022/08/21 09:39:39;;;;;;;1.63;1.10;;;20.30;99.90;;;;;;5197416;28;20039;-62
2022/08/21 09:42:14;;;;;;;1.30;1.20;;;20.30;99.90;;;;;;5192482;28;20042;-62
2022/08/21 09:44:46;;;;;;;1.30;1.20;;;20.00;99.90;;;;;;5201673;28;20037;-59
2022/08/21 09:47:22;;;;;;;1.40;1.30;;;19.80;99.90;;;;;;5201886;28;20332;-60
2022/08/21 09:49:53;;;;;;;1.13;1.00;;;20.00;99.90;;;;;;5201478;28;20023;-60
2022/08/21 09:52:27;;;;;;;1.55;1.27;;;20.20;99.90;;;;;;5202647;28;20033;-63
2022/08/21 09:57:37;;;;;;;1.73;1.15;;;20.60;99.90;;;;;;5201357;28;20024;-61
2022/08/21 09:57:54;;;;;;;1.40;1.30;;;20.40;99.90;;;;;;5239923;28;20054;-60
2022/08/21 10:00:29;;;;;;;1.42;1.33;;;20.40;99.90;;;;;;5240295;28;20025;-60
2022/08/21 10:03:27;;;;;;;1.40;1.30;;;20.90;99.90;;;;;;5238512;28;20258;-61
2022/08/21 10:06:00;;;;;;;1.50;1.40;;;21.30;99.90;;;;;;5211275;28;20394;-61
2022/08/21 10:08:33;;;;;;;1.73;1.30;;;21.40;99.90;;;;;;5205883;28;20020;-60
2022/08/21 10:11:16;;;;;;;1.40;1.20;;;21.00;99.90;;;;;;5211162;28;20029;-60
2022/08/21 10:14:11;;;;;;;1.30;1.10;;;20.90;99.90;;;;;;5218858;28;20024;-59
2022/08/21 10:17:16;;;;;;;1.40;1.30;;;20.60;99.90;;;;;;5221188;28;20021;-61
2022/08/21 10:20:07;;;;;;;1.10;1.00;;;20.70;99.90;;;;;;5221833;28;20023;-60
2022/08/21 10:22:56;;;;;;;1.27;1.17;;;20.80;99.90;;;;;;5180460;28;20272;-62
2022/08/21 10:25:44;;;;;;;1.25;1.15;;;20.30;99.90;;;;;;5229944;28;20020;-61
2022/08/21 10:28:46;;;;;;;1.27;1.17;;;20.10;99.90;;;;;;5220785;28;20297;-60
2022/08/21 10:31:46;;;;;;;1.30;1.20;;;19.70;99.90;;;;;;5239715;28;20019;-61
2022/08/21 10:34:48;;;;;;;1.83;1.60;;;19.60;99.90;;;;;;5216016;28;20029;-63
2022/08/21 10:37:53;;;;;;;1.50;1.40;;;19.40;99.90;;;;;;5202160;28;20025;-71
2022/08/21 10:40:45;;;;;;;1.83;1.67;;;19.10;99.90;;;;;;5220298;28;20031;-71
2022/08/21 10:43:25;;;;;;;2.20;2.00;;;18.80;99.90;;;;;;5216997;28;20032;-67
2022/08/21 10:46:26;;;;;;;1.80;1.70;;;18.80;99.90;;;;;;5219599;28;20033;-62
2022/08/21 10:49:28;;;;;;;1.95;1.75;;;18.90;99.90;;;;;;5193864;28;20033;-62
2022/08/21 10:52:24;;;;;;;1.83;1.73;;;19.00;99.90;;;;;;5219819;28;20178;-64
2022/08/21 10:55:20;;;;;;;1.83;1.70;;;19.00;99.90;;;;;;5218042;28;20328;-63
2022/08/21 10:57:59;;;;;;;3.40;1.65;;;19.10;99.90;;;;;;5215882;28;20291;-64
2022/08/21 11:00:38;;;;;;;1.77;1.67;;;19.20;99.90;;;;;;5219692;28;20048;-64
2022/08/21 11:03:31;;;;;;;1.95;1.60;;;19.00;99.90;;;;;;5217209;28;20017;-69
2022/08/21 11:06:18;;;;;;;2.55;1.55;;;18.80;99.90;;;;;;5191038;28;20045;-66
2022/08/21 11:08:54;;;;;;;2.55;1.92;;;18.70;99.90;;;;;;5201035;28;20303;-66
2022/08/21 11:12:01;;;;;;;1.73;1.60;;;18.60;99.90;;;;;;5193550;28;20204;-68
2022/08/21 11:14:54;;;;;;;1.30;1.20;;;18.60;99.90;;;;;;5192344;28;20041;-65
2022/08/21 11:17:45;;;;;;;1.33;1.23;;;18.60;99.90;;;;;;5193873;28;20089;-62
2022/08/21 11:20:43;;;;;;;2.30;1.85;;;18.90;99.90;;;;;;5188054;28;20040;-62
2022/08/21 11:23:24;;;;;;;1.52;1.27;;;19.10;99.90;;;;;;5225288;28;20029;-62
2022/08/21 11:26:07;;;;;;;2.88;1.05;;;19.00;99.90;;;;;;5231886;28;20033;-62
2022/08/21 11:28:51;;;;;;;1.20;1.10;;;18.90;99.90;;;;;;5225256;28;20028;-62
2022/08/21 11:31:38;;;;;;;0.90;0.90;;;19.60;99.90;;;;;;5229138;28;20033;-63
2022/08/21 11:34:36;;;;;;;0.90;0.90;;;20.30;99.90;;;;;;5225118;28;20047;-63
2022/08/21 11:37:16;;;;;;;0.80;0.80;;;20.40;99.90;;;;;;5218188;28;20032;-62
2022/08/21 11:40:03;;;;;;;1.00;1.00;;;20.20;99.90;;;;;;5243186;28;20029;-64
2022/08/21 11:42:40;;;;;;;0.75;0.75;;;20.20;99.90;;;;;;5235577;28;20039;-62
2022/08/21 11:45:36;;;;;;;0.70;0.70;;;20.30;99.90;;;;;;5230823;28;20047;-62
2022/08/21 11:48:36;;;;;;;1.05;0.90;;;20.30;99.90;;;;;;5200167;28;20021;-65
2022/08/21 11:51:15;;;;;;;0.68;0.68;;;20.60;99.90;;;;;;5202035;28;20039;-62
2022/08/21 11:54:12;;;;;;;0.80;0.80;;;20.90;99.90;;;;;;5230014;28;20035;-62
2022/08/21 11:56:50;;;;;;;1.15;1.02;;;21.10;99.90;;;;;;5224585;28;20306;-63
2022/08/21 11:59:34;;;;;;;0.75;0.75;;;21.70;99.90;;;;;;5259565;28;20024;-63
2022/08/21 12:02:13;;;;;;;;;;;22.00;99.90;;;;;;5222876;28;20031;-62
2022/08/21 12:04:58;;;;;;;0.93;0.90;;;21.60;99.90;;;;;;5221160;28;19916;-62
2022/08/21 12:07:39;;;;;;;0.95;0.95;;;21.60;99.90;;;;;;5212932;28;20055;-62
2022/08/21 12:10:20;;;;;;;1.38;1.20;;;21.20;99.90;;;;;;5212892;28;20233;-62
2022/08/21 12:13:08;;;;;;;0.70;0.70;;;21.40;99.90;;;;;;5233314;28;20035;-63
2022/08/21 12:15:47;;;;;;;2.72;0.90;;;22.50;99.90;;;;;;5229128;28;20032;-64
2022/08/21 12:18:32;;;;;;;0.85;0.85;;;22.00;99.90;;;;;;5218982;28;20223;-64
2022/08/21 12:21:25;;;;;;;0.98;0.90;;;21.00;99.90;;;;;;5205312;28;20040;-63
2022/08/21 12:24:00;;;;;;;1.33;1.10;;;20.40;99.90;;;;;;5240657;28;20039;-63
2022/08/21 12:26:51;;;;;;;0.90;0.90;;;20.30;99.90;;;;;;5207074;28;20221;-62
2022/08/21 12:29:35;;;;;;;0.80;0.80;;;20.00;99.90;;;;;;5204683;28;20029;-61
2022/08/21 12:32:09;;;;;;;0.90;0.90;;;20.00;99.90;;;;;;5229440;28;20043;-61
2022/08/21 12:34:52;;;;;;;1.00;1.00;;;19.90;99.90;;;;;;5202989;28;20033;-61
2022/08/21 12:37:35;;;;;;;0.98;0.98;;;19.70;99.90;;;;;;5232444;28;20017;-61
2022/08/21 12:40:23;;;;;;;1.58;1.20;;;19.50;99.90;;;;;;5234952;28;20206;-63
2022/08/21 12:43:01;;;;;;;0.80;0.80;;;19.50;99.90;;;;;;5184687;28;20056;-61
2022/08/21 12:45:42;;;;;;;1.20;1.10;;;19.50;99.90;;;;;;5208581;28;20333;-62
2022/08/21 12:48:39;;;;;;;1.45;1.35;;;19.30;99.90;;;;;;5219532;28;20039;-62
2022/08/21 12:51:17;;;;;;;1.50;1.40;;;19.20;99.90;;;;;;5218892;28;20494;-62
2022/08/21 12:54:00;;;;;;;1.50;1.40;;;19.00;99.90;;;;;;5230293;28;20029;-61
2022/08/21 12:56:38;;;;;;;1.35;1.25;;;18.90;99.90;;;;;;5213816;28;20033;-63
2022/08/21 12:59:13;;;;;;;1.60;1.50;;;18.80;99.90;;;;;;5232468;28;20021;-63
2022/08/21 13:01:47;;;;;;;;;;;18.80;99.90;;;;;;5236451;28;20020;-61
2022/08/21 13:04:24;;;;;;;1.52;1.42;;;18.80;99.90;;;;;;5193796;28;19904;-62
2022/08/21 13:07:01;;;;;;;1.33;1.23;;;18.90;99.90;;;;;;5236568;28;20027;-61
2022/08/21 13:09:32;;;;;;;1.33;1.23;;;19.00;99.90;;;;;;5236376;28;20029;-62
2022/08/21 13:12:11;;;;;;;1.30;1.20;;;19.20;99.90;;;;;;5217814;28;20036;-62
2022/08/21 13:14:47;;;;;;;1.38;1.27;;;19.20;99.90;;;;;;5238654;28;20100;-62
2022/08/21 13:17:31;;;;;;;1.30;1.20;;;19.10;99.90;;;;;;5220146;28;20035;-61
2022/08/21 13:20:20;;;;;;;1.08;0.95;;;19.20;99.90;;;;;;5242016;28;20031;-62
2022/08/21 13:22:52;;;;;;;1.60;1.50;;;19.50;99.90;;;;;;5240284;28;20029;-62
2022/08/21 13:25:27;;;;;;;1.52;1.42;;;19.30;99.90;;;;;;5207118;28;20043;-61
2022/08/21 13:28:11;;;;;;;3.03;2.13;;;18.90;99.90;;;;;;5241365;28;20027;-63
2022/08/21 13:30:45;;;;;;;1.80;1.67;;;18.70;99.90;;;;;;5242540;28;20029;-61
2022/08/21 13:33:23;;;;;;;1.90;1.75;;;18.70;99.90;;;;;;5242509;28;20205;-61
2022/08/21 13:36:03;;;;;;;1.15;1.05;;;18.70;99.90;;;;;;5239465;28;20029;-61
2022/08/21 13:38:36;;;;;;;1.70;1.60;;;18.90;99.90;;;;;;5205650;28;20043;-62
2022/08/21 13:41:16;;;;;;;1.75;1.60;;;18.80;99.90;;;;;;5241042;28;20278;-62
2022/08/21 13:43:58;;;;;;;1.38;1.27;;;18.90;99.90;;;;;;5240922;28;20040;-61